createdAt,value
2023-02-24T00:02:32.866Z,5.19
2023-02-24T00:05:58.273Z,5.15
2023-02-24T00:09:30.254Z,5.13
2023-02-24T00:13:30.968Z,5.12
2023-02-24T00:17:40.370Z,5.13
2023-02-24T00:21:12.359Z,5.16
2023-02-24T00:24:40.281Z,5.15
2023-02-24T00:28:15.139Z,5.17
2023-02-24T00:31:50.499Z,5.17
2023-02-24T00:35:23.732Z,5.16
2023-02-24T00:38:47.321Z,5.19
2023-02-24T00:42:26.236Z,5.22
2023-02-24T00:46:38.584Z,5.23
2023-02-24T00:50:31.333Z,5.26
2023-02-24T00:54:01.571Z,5.28
2023-02-24T00:57:42.086Z,5.30
2023-02-24T01:01:14.395Z,5.30
2023-02-24T01:05:07.028Z,5.30
2023-02-24T01:08:59.270Z,5.29
2023-02-24T01:12:59.673Z,5.28
2023-02-24T01:16:28.735Z,5.30
2023-02-24T01:20:14.186Z,5.28
2023-02-24T01:23:35.783Z,5.27
2023-02-24T01:27:00.458Z,5.25
2023-02-24T01:30:23.791Z,5.24
2023-02-24T01:33:49.417Z,5.19
2023-02-24T01:37:03.818Z,5.17
2023-02-24T01:40:40.623Z,5.17
2023-02-24T01:44:34.026Z,5.12
2023-02-24T01:48:00.228Z,5.14
2023-02-24T01:51:52.576Z,5.16
2023-02-24T01:55:47.097Z,5.16
2023-02-24T01:58:48.135Z,5.17
2023-02-24T02:01:58.614Z,5.17
2023-02-24T02:05:16.780Z,5.19
2023-02-24T02:08:59.747Z,5.22
2023-02-24T02:13:01.835Z,5.23
2023-02-24T02:17:06.221Z,5.23
2023-02-24T02:21:11.313Z,5.23
2023-02-24T02:24:52.374Z,5.24
2023-02-24T02:27:58.291Z,5.23
2023-02-24T02:31:42.248Z,5.25
2023-02-24T02:35:38.341Z,5.25
2023-02-24T02:39:28.331Z,5.23
2023-02-24T02:43:05.966Z,5.21
2023-02-24T02:46:23.978Z,5.22
2023-02-24T02:50:19.323Z,5.26
2023-02-24T02:54:18.977Z,5.29
2023-02-24T02:57:53.614Z,5.32
2023-02-24T03:01:16.594Z,5.32
2023-02-24T03:04:15.305Z,5.29
2023-02-24T03:07:49.977Z,5.27
2023-02-24T03:11:14.198Z,5.30
2023-02-24T03:14:57.776Z,5.33
2023-02-24T03:18:24.650Z,5.35
2023-02-24T03:22:12.284Z,5.37
2023-02-24T03:24:46.850Z,5.40
2023-02-24T03:28:20.274Z,5.38
2023-02-24T03:32:07.062Z,5.35
2023-02-24T03:35:58.928Z,5.34
2023-02-24T03:39:51.478Z,5.32
2023-02-24T03:43:16.850Z,5.32
2023-02-24T03:46:39.957Z,5.33
2023-02-24T03:49:37.653Z,5.34
2023-02-24T03:53:52.958Z,5.35
2023-02-24T03:58:03.677Z,5.36
2023-02-24T04:01:55.548Z,5.34
2023-02-24T04:05:57.133Z,5.33
2023-02-24T04:09:31.333Z,5.33
2023-02-24T04:13:36.715Z,5.32
2023-02-24T04:17:28.569Z,5.31
2023-02-24T04:21:14.326Z,5.32
2023-02-24T04:25:06.892Z,5.35
2023-02-24T04:28:44.939Z,5.35
2023-02-24T04:32:46.072Z,5.33
2023-02-24T04:36:55.644Z,5.32
2023-02-24T04:41:01.770Z,5.31
2023-02-24T04:44:51.433Z,5.31
2023-02-24T04:48:26.862Z,5.29
2023-02-24T04:51:55.862Z,5.27
2023-02-24T04:56:05.426Z,5.25
2023-02-24T05:00:07.582Z,5.25
2023-02-24T05:03:59.745Z,5.27
2023-02-24T05:06:57.571Z,5.28
2023-02-24T05:09:42.327Z,5.29
2023-02-24T05:13:20.045Z,5.28
2023-02-24T05:17:13.255Z,5.25
2023-02-24T05:20:39.890Z,5.23
2023-02-24T05:24:29.654Z,5.24
2023-02-24T05:27:30.174Z,5.27
2023-02-24T05:30:56.053Z,5.26
2023-02-24T05:34:54.919Z,5.23
2023-02-24T05:38:19.777Z,5.20
2023-02-24T05:42:22.566Z,5.14
2023-02-24T05:46:27.075Z,5.13
2023-02-24T05:49:39.781Z,5.09
2023-02-24T05:52:56.031Z,5.02
2023-02-24T05:55:58.778Z,4.98
2023-02-24T05:59:33.660Z,4.95
2023-02-24T06:02:51.037Z,4.94
2023-02-24T06:06:42.833Z,4.91
2023-02-24T06:10:35.114Z,4.87
2023-02-24T06:14:23.266Z,4.85
2023-02-24T06:17:41.356Z,4.81
2023-02-24T06:21:43.880Z,4.79
2023-02-24T06:25:24.786Z,4.78
2023-02-24T06:29:25.061Z,4.78
2023-02-24T06:32:26.666Z,4.74
2023-02-24T06:35:15.902Z,4.70
2023-02-24T06:38:49.190Z,4.68
2023-02-24T06:42:23.985Z,4.65
2023-02-24T06:46:33.436Z,4.60
2023-02-24T06:50:32.898Z,4.52
2023-02-24T06:54:36.340Z,4.44
2023-02-24T06:57:50.575Z,4.33
2023-02-24T07:01:08.942Z,4.28
2023-02-24T07:04:58.474Z,4.15
2023-02-24T07:08:32.862Z,4.06
2023-02-24T07:12:05.115Z,3.97
2023-02-24T07:16:11.147Z,3.80
2023-02-24T07:19:47.834Z,3.64
2023-02-24T07:23:58.565Z,3.53
2023-02-24T07:28:14.505Z,3.48
2023-02-24T07:32:24.335Z,3.41
2023-02-24T07:36:08.596Z,3.35
2023-02-24T07:40:07.361Z,3.33
2023-02-24T07:44:19.577Z,3.31
2023-02-24T07:48:29.674Z,3.29
2023-02-24T07:52:31.567Z,3.26
2023-02-24T07:56:01.219Z,3.17
2023-02-24T07:59:59.669Z,3.12
2023-02-24T08:03:49.925Z,3.11
2023-02-24T08:07:58.638Z,3.08
2023-02-24T08:12:01.447Z,3.03
2023-02-24T08:15:36.144Z,2.98
2023-02-24T08:19:38.963Z,2.92
2023-02-24T08:23:23.798Z,2.89
2023-02-24T08:27:33.651Z,2.95
2023-02-24T08:31:28.503Z,3.03
2023-02-24T08:35:31.099Z,3.06
2023-02-24T08:39:40.496Z,3.08
2023-02-24T08:43:55.684Z,3.12
2023-02-24T08:48:05.404Z,3.24
2023-02-24T08:51:29.213Z,3.32
2023-02-24T08:55:21.553Z,3.38
2023-02-24T08:59:35.336Z,3.45
2023-02-24T09:03:49.362Z,3.46
2023-02-24T09:07:22.092Z,3.48
2023-02-24T09:11:10.301Z,3.50
2023-02-24T09:15:03.300Z,3.54
2023-02-24T09:19:11.106Z,3.53
2023-02-24T09:23:23.591Z,3.53
2023-02-24T09:27:31.977Z,3.57
2023-02-24T09:31:15.940Z,3.62
2023-02-24T09:35:23.969Z,3.64
2023-02-24T09:39:15.145Z,3.66
2023-02-24T09:42:47.293Z,3.67
2023-02-24T09:45:47.207Z,3.70
2023-02-24T09:49:30.403Z,3.72
2023-02-24T09:53:41.590Z,3.74
2023-02-24T09:57:43.738Z,3.76
2023-02-24T10:01:15.992Z,3.80
2023-02-24T10:05:03.344Z,3.83
2023-02-24T10:08:43.479Z,3.85
2023-02-24T10:12:55.506Z,3.91
2023-02-24T10:16:45.511Z,3.98
2023-02-24T10:20:38.102Z,4.04
2023-02-24T10:24:21.404Z,4.03
2023-02-24T10:28:33.375Z,4.07
2023-02-24T10:32:47.328Z,4.10
2023-02-24T10:36:51.698Z,4.11
2023-02-24T10:41:04.320Z,4.12
2023-02-24T10:45:03.372Z,4.09
2023-02-24T10:49:21.983Z,4.06
2023-02-24T10:53:54.960Z,4.02
2023-02-24T10:57:58.984Z,4.06
2023-02-24T11:01:44.665Z,4.08
2023-02-24T11:05:57.173Z,4.13
2023-02-24T11:10:10.425Z,4.15
2023-02-24T11:14:06.292Z,4.13
2023-02-24T11:18:11.242Z,4.12
2023-02-24T11:22:20.962Z,4.17
2023-02-24T11:26:07.105Z,4.20
2023-02-24T11:30:19.066Z,4.21
2023-02-24T11:33:46.232Z,4.22
2023-02-24T11:37:56.010Z,4.25
2023-02-24T11:42:07.199Z,4.26
2023-02-24T11:45:42.852Z,4.27
2023-02-24T11:49:14.843Z,4.29
2023-02-24T11:53:16.028Z,4.27
2023-02-24T11:56:09.344Z,4.28
2023-02-24T11:59:58.273Z,4.32
2023-02-24T12:03:51.291Z,4.34
2023-02-24T12:07:40.585Z,4.35
2023-02-24T12:11:23.876Z,4.34
2023-02-24T12:15:06.620Z,4.34
2023-02-24T12:19:06.588Z,4.37
2023-02-24T12:22:34.799Z,4.40
2023-02-24T12:27:05.852Z,4.42
2023-02-24T12:31:13.676Z,4.43
2023-02-24T12:35:16.563Z,4.41
2023-02-24T12:39:31.761Z,4.41
2023-02-24T12:42:43.305Z,4.40
2023-02-24T12:46:16.952Z,4.40
2023-02-24T12:50:00.632Z,4.40
2023-02-24T12:53:43.779Z,4.43
2023-02-24T12:58:03.711Z,4.46
2023-02-24T13:02:17.626Z,4.45
2023-02-24T13:06:03.069Z,4.47
2023-02-24T13:10:01.390Z,4.48
2023-02-24T13:13:47.102Z,4.49
2023-02-24T13:17:45.066Z,4.50
2023-02-24T13:22:10.372Z,4.47
2023-02-24T13:25:59.832Z,4.45
2023-02-24T13:29:40.910Z,4.43
2023-02-24T13:33:44.951Z,4.43
2023-02-24T13:37:39.564Z,4.42
2023-02-24T13:41:46.575Z,4.45
2023-02-24T13:45:41.860Z,4.48
2023-02-24T13:49:27.254Z,4.53
2023-02-24T13:53:10.471Z,4.55
2023-02-24T13:56:57.188Z,4.56
2023-02-24T14:00:25.396Z,4.56
2023-02-24T14:04:27.304Z,4.56
2023-02-24T14:08:38.044Z,4.57
2023-02-24T14:12:09.347Z,4.57
2023-02-24T14:16:19.037Z,4.56
2023-02-24T14:20:18.730Z,4.56
2023-02-24T14:24:02.386Z,4.52
2023-02-24T14:28:14.555Z,4.51
2023-02-24T14:31:52.169Z,4.48
2023-02-24T14:35:48.299Z,4.47
2023-02-24T14:39:30.468Z,4.46
2023-02-24T14:43:06.421Z,4.44
2023-02-24T14:46:55.340Z,4.42
2023-02-24T14:50:53.883Z,4.39
2023-02-24T14:55:03.709Z,4.36
2023-02-24T14:59:13.967Z,4.33
2023-02-24T15:02:44.160Z,4.31
2023-02-24T15:06:04.057Z,4.28
2023-02-24T15:09:38.566Z,4.26
2023-02-24T15:13:38.194Z,4.28
2023-02-24T15:17:50.533Z,4.28
2023-02-24T15:22:01.437Z,4.30
2023-02-24T15:26:23.106Z,4.32
2023-02-24T15:30:01.314Z,4.31
2023-02-24T15:34:16.539Z,4.30
2023-02-24T15:37:28.601Z,4.27
2023-02-24T15:40:58.579Z,4.26
2023-02-24T15:45:05.911Z,4.26
2023-02-24T15:49:17.365Z,4.21
2023-02-24T15:53:26.565Z,4.15
2023-02-24T15:57:10.215Z,4.10
2023-02-24T16:00:59.915Z,4.06
2023-02-24T16:05:09.671Z,4.06
2023-02-24T16:09:00.869Z,4.04
2023-02-24T16:12:41.178Z,4.02
2023-02-24T16:16:43.694Z,4.03
2023-02-24T16:20:35.763Z,4.00
2023-02-24T16:24:46.190Z,3.97
2023-02-24T16:28:46.711Z,3.92
2023-02-24T16:32:53.304Z,3.89
2023-02-24T16:37:03.267Z,3.87
2023-02-24T16:40:40.761Z,3.85
2023-02-24T16:44:50.395Z,3.85
2023-02-24T16:48:18.422Z,3.85
2023-02-24T16:51:48.913Z,3.85
2023-02-24T16:54:59.428Z,3.82
2023-02-24T16:58:52.814Z,3.82
2023-02-24T17:03:05.223Z,3.76
2023-02-24T17:06:42.795Z,3.72
2023-02-24T17:09:51.717Z,3.67
2023-02-24T17:13:02.320Z,3.65
2023-02-24T17:21:21.273Z,3.61
2023-02-24T17:25:08.236Z,3.61
2023-02-24T17:28:57.664Z,3.62
2023-02-24T17:33:07.106Z,3.61
2023-02-24T17:37:13.162Z,3.61
2023-02-24T17:41:11.723Z,3.60
2023-02-24T17:44:56.387Z,3.61
2023-02-24T17:48:55.899Z,3.62
2023-02-24T17:53:05.668Z,3.62
2023-02-24T17:56:57.941Z,3.63
2023-02-24T18:00:52.964Z,3.64
2023-02-24T18:05:02.592Z,3.61
2023-02-24T18:09:00.480Z,3.58
2023-02-24T18:12:49.905Z,3.58
2023-02-24T18:16:59.516Z,3.58
2023-02-24T18:20:44.471Z,3.54
2023-02-24T18:24:29.471Z,3.52
2023-02-24T18:28:31.507Z,3.49
2023-02-24T18:32:41.425Z,3.48
2023-02-24T18:36:04.875Z,3.48
2023-02-24T18:40:08.721Z,3.47
2023-02-24T18:44:18.072Z,3.45
2023-02-24T18:48:20.607Z,3.45
2023-02-24T18:52:18.652Z,3.44
2023-02-24T18:56:07.935Z,3.42
2023-02-24T19:00:12.094Z,3.40
2023-02-24T19:04:11.406Z,3.38
2023-02-24T19:08:13.888Z,3.35
2023-02-24T19:12:14.155Z,3.34
2023-02-24T19:16:23.956Z,3.33
2023-02-24T19:20:16.625Z,3.32
2023-02-24T19:23:50.508Z,3.28
2023-02-24T19:28:00.609Z,3.25
2023-02-24T19:32:10.207Z,3.18
2023-02-24T19:36:18.407Z,3.13
2023-02-24T19:40:28.016Z,3.09
2023-02-24T19:44:00.780Z,3.06
2023-02-24T19:48:10.198Z,3.02
2023-02-24T19:51:56.865Z,2.99
2023-02-24T19:55:39.617Z,2.97
2023-02-24T19:59:32.311Z,2.95
2023-02-24T20:03:40.256Z,2.93
2023-02-24T20:07:50.095Z,2.89
2023-02-24T20:11:59.563Z,2.84
2023-02-24T20:15:40.467Z,2.81
2023-02-24T20:19:43.024Z,2.79
2023-02-24T20:23:55.387Z,2.76
2023-02-24T20:28:04.938Z,2.77
2023-02-24T20:32:14.869Z,2.79
2023-02-24T20:36:24.892Z,2.82
2023-02-24T20:40:07.400Z,2.85
2023-02-24T20:43:58.519Z,2.87
2023-02-24T20:47:53.434Z,2.87
2023-02-24T20:51:44.491Z,2.88
2023-02-24T20:55:54.149Z,2.88
2023-02-24T21:00:02.549Z,2.89
2023-02-24T21:04:13.140Z,2.89
2023-02-24T21:08:22.670Z,2.91
2023-02-24T21:12:36.487Z,2.93
2023-02-24T21:16:28.241Z,2.96
2023-02-24T21:20:27.874Z,2.99
2023-02-24T21:24:33.313Z,3.03
2023-02-24T21:28:43.171Z,3.05
2023-02-24T21:32:52.714Z,3.08
2023-02-24T21:36:51.015Z,3.11
2023-02-24T21:41:00.668Z,3.13
2023-02-24T21:45:02.957Z,3.17
2023-02-24T21:49:12.532Z,3.18
2023-02-24T21:53:21.200Z,3.22
2023-02-24T21:57:30.683Z,3.25
2023-02-24T22:01:40.269Z,3.27
2023-02-24T22:05:49.805Z,3.29
2023-02-24T22:09:35.120Z,3.31
2023-02-24T22:13:37.171Z,3.32
2023-02-24T22:17:37.985Z,3.33
2023-02-24T22:21:45.549Z,3.35
2023-02-24T22:25:43.997Z,3.40
2023-02-24T22:29:53.431Z,3.41
2023-02-24T22:34:03.050Z,3.42
2023-02-24T22:38:12.523Z,3.44
2023-02-24T22:42:22.289Z,3.48
2023-02-24T22:46:37.513Z,3.50
2023-02-24T22:50:47.294Z,3.52
2023-02-24T22:54:56.519Z,3.52
2023-02-24T22:59:05.933Z,3.51
2023-02-24T23:02:48.550Z,3.53
2023-02-24T23:06:40.011Z,3.52
2023-02-24T23:10:49.895Z,3.51
2023-02-24T23:14:59.556Z,3.53
2023-02-24T23:18:52.079Z,3.54
2023-02-24T23:23:01.668Z,3.55
2023-02-24T23:27:03.888Z,3.55
2023-02-24T23:31:03.304Z,3.55
2023-02-24T23:35:05.646Z,3.56
2023-02-24T23:39:05.153Z,3.58
2023-02-24T23:42:54.368Z,3.58
2023-02-24T23:47:04.108Z,3.57
2023-02-24T23:51:12.412Z,3.55
2023-02-24T23:55:02.125Z,3.54
2023-02-24T23:59:11.539Z,3.52
